Time;durP1;ratioP1;P1;durP2;ratioP2;P2;SDS_P1;SDS_P2;PMS_P1;PMS_P2;Temp;Humidity;BMP_temperature;BMP_pressure;BME280_temperature;BME280_humidity;BME280_pressure;Samples;Min_cycle;Max_cycle;Signal;HPM_P1;HPM_P2
2022/08/10 00:02:26;;;;;;;2.47;1.42;;;;;;;;;;5075967;28;20559;-75
2022/08/10 00:04:52;;;;;;;4.47;1.50;;;;;;;;;;5076184;28;20052;-75
2022/08/10 00:07:18;;;;;;;4.85;1.63;;;;;;;;;;5075513;28;20024;-75
2022/08/10 00:09:44;;;;;;;7.55;1.75;;;;;;;;;;5074884;28;20488;-74
2022/08/10 00:12:10;;;;;;;2.53;1.38;;;;;;;;;;5074971;28;20029;-74
2022/08/10 00:14:35;;;;;;;2.97;1.38;;;;;;;;;;5075977;28;20047;-76
2022/08/10 00:17:01;;;;;;;3.75;1.90;;;;;;;;;;5076483;28;20024;-75
2022/08/10 00:19:27;;;;;;;3.22;1.73;;;;;;;;;;5080825;28;20029;-73
2022/08/10 00:21:53;;;;;;;3.58;2.13;;;;;;;;;;5081127;28;20025;-74
2022/08/10 00:24:19;;;;;;;7.60;2.75;;;;;;;;;;5084194;28;20054;-74
2022/08/10 00:26:45;;;;;;;4.00;2.50;;;;;;;;;;5085867;28;20055;-74
2022/08/10 00:29:11;;;;;;;3.42;1.95;;;;;;;;;;5080511;28;20101;-75
2022/08/10 00:31:37;;;;;;;6.95;1.90;;;;;;;;;;5082197;28;20040;-75
2022/08/10 00:34:03;;;;;;;4.75;2.35;;;;;;;;;;5081737;28;20035;-74
2022/08/10 00:36:29;;;;;;;3.92;1.98;;;;;;;;;;5084221;28;20035;-74
2022/08/10 00:38:55;;;;;;;2.42;1.55;;;;;;;;;;5073506;28;20513;-74
2022/08/10 00:41:21;;;;;;;5.85;2.00;;;;;;;;;;5072895;28;20095;-74
2022/08/10 00:43:47;;;;;;;4.78;2.33;;;;;;;;;;5074456;28;20481;-75
2022/08/10 00:46:13;;;;;;;4.47;2.38;;;;;;;;;;5073773;28;20480;-75
2022/08/10 00:48:39;;;;;;;4.32;2.60;;;;;;;;;;5071999;28;20445;-74
2022/08/10 00:51:05;;;;;;;3.60;2.35;;;;;;;;;;5072629;28;20028;-75
2022/08/10 00:53:31;;;;;;;2.65;1.95;;;;;;;;;;5074115;28;20028;-75
2022/08/10 00:55:57;;;;;;;4.03;2.40;;;;;;;;;;5082213;28;20039;-74
2022/08/10 00:58:23;;;;;;;6.43;2.30;;;;;;;;;;5081162;28;20020;-74
2022/08/10 01:00:49;;;;;;;3.70;2.05;;;;;;;;;;5073511;28;20017;-75
2022/08/10 01:03:15;;;;;;;5.25;2.15;;;;;;;;;;5073493;28;20043;-75
2022/08/10 01:05:54;;;;;;;5.25;2.20;;;;;;;;;;5073346;28;20021;-75
2022/08/10 01:08:31;;;;;;;3.65;2.42;;;;;;;;;;5073178;28;20025;-75
2022/08/10 01:11:00;;;;;;;5.53;2.30;;;;;;;;;;5073436;28;20033;-75
2022/08/10 01:13:30;;;;;;;4.90;1.80;;;;;;;;;;5074589;28;20120;-75
2022/08/10 01:16:09;;;;;;;3.95;2.05;;;;;;;;;;5074199;28;20017;-76
2022/08/10 01:18:49;;;;;;;3.75;1.83;;;;;;;;;;5073713;28;20025;-75
2022/08/10 01:21:33;;;;;;;4.50;1.92;;;;;;;;;;5073099;28;20380;-76
2022/08/10 01:24:05;;;;;;;2.85;1.73;;;;;;;;;;5073097;28;20033;-75
2022/08/10 01:26:54;;;;;;;3.63;1.67;;;;;;;;;;5073331;28;20389;-77
2022/08/10 01:29:29;;;;;;;2.88;1.90;;;;;;;;;;5071514;28;20021;-76
2022/08/10 01:31:57;;;;;;;3.47;2.10;;;;;;;;;;5073217;28;20091;-75
2022/08/10 01:34:26;;;;;;;3.80;1.83;;;;;;;;;;5074254;28;20089;-75
2022/08/10 01:36:55;;;;;;;8.00;2.00;;;;;;;;;;5073314;28;20379;-75
2022/08/10 01:39:23;;;;;;;3.13;1.95;;;;;;;;;;5072976;28;20492;-76
2022/08/10 01:41:50;;;;;;;3.58;1.90;;;;;;;;;;5073070;28;20381;-76
2022/08/10 01:44:19;;;;;;;11.70;2.10;;;;;;;;;;5073576;28;20055;-76
2022/08/10 01:46:48;;;;;;;8.85;2.10;;;;;;;;;;5070910;28;20036;-75
2022/08/10 01:49:15;;;;;;;3.45;2.00;;;;;;;;;;5072898;28;20420;-74
2022/08/10 01:51:50;;;;;;;3.03;2.00;;;;;;;;;;5072772;28;20029;-76
2022/08/10 01:54:19;;;;;;;4.50;2.30;;;;;;;;;;5073142;28;20024;-77
2022/08/10 01:56:46;;;;;;;3.85;2.63;;;;;;;;;;5071356;28;20024;-75
2022/08/10 01:59:14;;;;;;;3.67;1.90;;;;;;;;;;5074364;28;20536;-76
2022/08/10 02:01:42;;;;;;;3.03;1.95;;;;;;;;;;5073006;28;20418;-76
2022/08/10 02:04:10;;;;;;;3.13;1.85;;;;;;;;;;5074434;28;20089;-75
2022/08/10 02:06:42;;;;;;;3.75;2.10;;;;;;;;;;5074722;28;20052;-75
2022/08/10 02:09:10;;;;;;;3.50;1.92;;;;;;;;;;5080126;28;20032;-76
2022/08/10 02:11:37;;;;;;;2.55;1.65;;;;;;;;;;5073173;28;20029;-75
2022/08/10 02:14:03;;;;;;;6.03;2.15;;;;;;;;;;5073279;28;20035;-76
2022/08/10 02:16:30;;;;;;;3.05;1.92;;;;;;;;;;5075265;28;20024;-75
2022/08/10 02:18:57;;;;;;;3.05;2.00;;;;;;;;;;5075510;28;20021;-75
2022/08/10 02:21:24;;;;;;;4.55;2.40;;;;;;;;;;5083385;28;20491;-75
2022/08/10 02:23:50;;;;;;;2.85;1.60;;;;;;;;;;5074863;28;20029;-76
2022/08/10 02:26:16;;;;;;;2.55;1.70;;;;;;;;;;5070824;28;20410;-76
2022/08/10 02:28:42;;;;;;;5.07;2.00;;;;;;;;;;5072535;28;20032;-76
2022/08/10 02:31:10;;;;;;;3.45;2.05;;;;;;;;;;5070882;28;20025;-76
2022/08/10 02:33:37;;;;;;;4.32;2.28;;;;;;;;;;5071340;28;20436;-76
2022/08/10 02:36:04;;;;;;;4.07;2.00;;;;;;;;;;5072640;28;20024;-76
2022/08/10 02:38:32;;;;;;;1.98;1.67;;;;;;;;;;5072699;28;20028;-76
2022/08/10 02:41:01;;;;;;;4.05;2.10;;;;;;;;;;5078792;28;20021;-77
2022/08/10 02:43:30;;;;;;;4.35;2.20;;;;;;;;;;5072780;28;20063;-76
2022/08/10 02:46:01;;;;;;;3.45;1.95;;;;;;;;;;5072768;28;20028;-76
2022/08/10 02:48:32;;;;;;;3.33;2.03;;;;;;;;;;5078686;28;20028;-77
2022/08/10 02:50:59;;;;;;;3.83;1.85;;;;;;;;;;5075755;28;20025;-75
2022/08/10 02:53:30;;;;;;;5.53;2.22;;;;;;;;;;5074154;28;20058;-75
2022/08/10 02:56:06;;;;;;;3.75;2.00;;;;;;;;;;5077771;28;20029;-75
2022/08/10 02:58:39;;;;;;;8.95;2.13;;;;;;;;;;5077128;28;20029;-76
2022/08/10 03:01:08;;;;;;;3.08;2.35;;;;;;;;;;5076049;28;20063;-76
2022/08/10 03:03:37;;;;;;;6.63;3.80;;;;;;;;;;5077280;28;20025;-75
2022/08/10 03:06:05;;;;;;;5.85;2.63;;;;;;;;;;5077922;28;20052;-76
2022/08/10 03:08:33;;;;;;;4.47;2.42;;;;;;;;;;5075994;28;20072;-76
2022/08/10 03:11:00;;;;;;;4.80;2.17;;;;;;;;;;5075458;28;20028;-76
2022/08/10 03:13:28;;;;;;;6.88;2.25;;;;;;;;;;5075399;28;20394;-76
2022/08/10 03:15:55;;;;;;;6.53;2.47;;;;;;;;;;5077984;28;20024;-76
2022/08/10 03:18:23;;;;;;;5.30;2.17;;;;;;;;;;5075407;28;20031;-76
2022/08/10 03:20:50;;;;;;;4.75;2.92;;;;;;;;;;5075930;28;20105;-76
2022/08/10 03:23:17;;;;;;;4.45;2.63;;;;;;;;;;5075442;28;20028;-75
2022/08/10 03:25:45;;;;;;;4.30;3.00;;;;;;;;;;5075284;28;20032;-74
2022/08/10 03:28:12;;;;;;;5.22;2.65;;;;;;;;;;5076464;28;20020;-77
2022/08/10 03:30:39;;;;;;;4.80;3.05;;;;;;;;;;5075317;28;20025;-75
2022/08/10 03:33:06;;;;;;;5.93;2.40;;;;;;;;;;5075329;28;20049;-76
2022/08/10 03:35:32;;;;;;;6.72;2.50;;;;;;;;;;5074783;28;20028;-77
2022/08/10 03:37:58;;;;;;;5.28;3.00;;;;;;;;;;5075627;28;20078;-75
2022/08/10 03:40:25;;;;;;;6.05;3.28;;;;;;;;;;5076231;28;20428;-75
2022/08/10 03:42:52;;;;;;;9.55;2.70;;;;;;;;;;5074792;28;20024;-76
2022/08/10 03:45:18;;;;;;;5.50;3.20;;;;;;;;;;5074726;28;20047;-76
2022/08/10 03:47:44;;;;;;;3.58;2.15;;;;;;;;;;5076453;28;20032;-76
2022/08/10 03:50:12;;;;;;;4.88;2.80;;;;;;;;;;5075168;28;20107;-75
2022/08/10 03:52:38;;;;;;;7.43;2.80;;;;;;;;;;5075123;28;20055;-76
2022/08/10 03:55:05;;;;;;;5.38;3.00;;;;;;;;;;5075954;28;20402;-75
2022/08/10 03:57:31;;;;;;;5.85;3.08;;;;;;;;;;5081911;28;20032;-75
2022/08/10 03:59:57;;;;;;;4.53;2.90;;;;;;;;;;5081155;28;20021;-74
2022/08/10 04:02:23;;;;;;;5.20;2.90;;;;;;;;;;5079965;28;20051;-76
2022/08/10 04:04:49;;;;;;;8.90;4.00;;;;;;;;;;5082285;28;20024;-76
2022/08/10 04:07:15;;;;;;;4.15;2.78;;;;;;;;;;5082790;28;20033;-75
2022/08/10 04:09:41;;;;;;;4.65;2.50;;;;;;;;;;5070100;22;20041;-76
2022/08/10 04:12:07;;;;;;;5.30;2.63;;;;;;;;;;5035295;28;20044;-76
2022/08/10 04:14:34;;;;;;;5.03;2.83;;;;;;;;;;5056158;28;20049;-76
2022/08/10 04:17:00;;;;;;;5.10;2.28;;;;;;;;;;5040813;28;20081;-76
2022/08/10 04:19:26;;;;;;;5.13;2.33;;;;;;;;;;5038938;28;20039;-76
2022/08/10 04:22:10;;;;;;;8.85;3.90;;;;;;;;;;5058468;28;20010;-76
2022/08/10 04:24:37;;;;;;;8.70;3.05;;;;;;;;;;5058164;28;20013;-76
2022/08/10 04:27:03;;;;;;;11.13;3.33;;;;;;;;;;5057769;28;20032;-77
2022/08/10 04:29:29;;;;;;;5.30;3.05;;;;;;;;;;5041122;28;20033;-74
2022/08/10 04:31:56;;;;;;;7.28;2.90;;;;;;;;;;5035479;28;20049;-75
2022/08/10 04:34:22;;;;;;;4.07;2.72;;;;;;;;;;5034643;28;20026;-76
2022/08/10 04:36:49;;;;;;;37.20;16.00;;;;;;;;;;5034791;28;20029;-77
2022/08/10 04:39:15;;;;;;;16.08;7.80;;;;;;;;;;5034045;28;20529;-77
2022/08/10 04:41:41;;;;;;;7.45;4.40;;;;;;;;;;5033215;28;20075;-76
2022/08/10 04:44:07;;;;;;;8.98;4.40;;;;;;;;;;5015539;28;20404;-74
2022/08/10 04:46:33;;;;;;;6.47;3.63;;;;;;;;;;5033302;28;20032;-77
2022/08/10 04:48:59;;;;;;;5.03;3.05;;;;;;;;;;5033590;28;20030;-77
2022/08/10 04:51:25;;;;;;;4.03;2.50;;;;;;;;;;5033379;28;20026;-76
2022/08/10 04:53:51;;;;;;;6.13;2.75;;;;;;;;;;5033124;28;20087;-74
2022/08/10 04:56:17;;;;;;;4.25;2.60;;;;;;;;;;5015482;28;20021;-76
2022/08/10 04:58:43;;;;;;;5.50;2.80;;;;;;;;;;5035822;28;20379;-76
2022/08/10 05:01:09;;;;;;;4.20;2.75;;;;;;;;;;5034360;28;20057;-76
2022/08/10 05:03:35;;;;;;;11.55;4.20;;;;;;;;;;5034084;28;20079;-75
2022/08/10 05:06:01;;;;;;;7.50;3.67;;;;;;;;;;5015756;28;20040;-77
2022/08/10 05:08:27;;;;;;;7.35;4.03;;;;;;;;;;5016092;28;20033;-76
2022/08/10 05:10:53;;;;;;;7.10;3.33;;;;;;;;;;5035201;28;20068;-78
2022/08/10 05:13:19;;;;;;;8.82;4.55;;;;;;;;;;5034240;28;20101;-77
2022/08/10 05:15:45;;;;;;;10.52;4.05;;;;;;;;;;5034438;28;20389;-77
2022/08/10 05:18:11;;;;;;;9.05;3.20;;;;;;;;;;5034316;28;20405;-77
2022/08/10 05:20:38;;;;;;;10.45;5.65;;;;;;;;;;5034569;28;20021;-80
2022/08/10 05:23:04;;;;;;;6.72;3.60;;;;;;;;;;5034046;28;20025;-76
2022/08/10 05:25:30;;;;;;;7.18;3.13;;;;;;;;;;5033754;28;20021;-78
2022/08/10 05:27:56;;;;;;;8.50;3.50;;;;;;;;;;5034861;28;20112;-78
2022/08/10 05:30:22;;;;;;;5.45;3.20;;;;;;;;;;5036037;28;20053;-78
2022/08/10 05:32:48;;;;;;;5.53;3.22;;;;;;;;;;5016130;28;20064;-76
2022/08/10 05:35:14;;;;;;;5.00;2.85;;;;;;;;;;5034319;28;20075;-77
2022/08/10 05:37:41;;;;;;;7.78;3.30;;;;;;;;;;5036864;28;20025;-78
2022/08/10 05:40:08;;;;;;;9.23;3.05;;;;;;;;;;5035952;28;20024;-78
2022/08/10 05:42:34;;;;;;;5.82;3.38;;;;;;;;;;5017816;28;20041;-80
2022/08/10 05:45:00;;;;;;;7.82;3.75;;;;;;;;;;5036760;28;20085;-77
2022/08/10 05:47:26;;;;;;;3.80;2.72;;;;;;;;;;5015661;28;20104;-77
2022/08/10 05:49:52;;;;;;;10.77;4.90;;;;;;;;;;5034391;28;20064;-77
2022/08/10 05:52:18;;;;;;;6.63;3.22;;;;;;;;;;5033421;28;20474;-77
2022/08/10 05:54:45;;;;;;;9.07;3.70;;;;;;;;;;5015165;28;20034;-77
2022/08/10 05:57:12;;;;;;;11.27;4.03;;;;;;;;;;5036170;28;20022;-77
2022/08/10 05:59:41;;;;;;;10.05;3.83;;;;;;;;;;5035798;28;20425;-79
2022/08/10 06:02:07;;;;;;;8.50;4.22;;;;;;;;;;5039555;28;20096;-78
2022/08/10 06:04:37;;;;;;;7.32;3.53;;;;;;;;;;5017904;28;20025;-78
2022/08/10 06:07:04;;;;;;;6.20;3.60;;;;;;;;;;5036108;28;20037;-79
2022/08/10 06:09:31;;;;;;;5.63;2.70;;;;;;;;;;5034592;28;20041;-79
2022/08/10 06:11:58;;;;;;;11.30;3.78;;;;;;;;;;5019232;28;20026;-77
2022/08/10 06:17:10;;;;;;;11.13;4.68;;;;;;;;;;5040629;28;20055;-76
2022/08/10 06:19:36;;;;;;;10.00;4.43;;;;;;;;;;5038401;28;20022;-77
2022/08/10 06:22:02;;;;;;;18.63;8.57;;;;;;;;;;5035155;28;20017;-76
2022/08/10 06:24:35;;;;;;;11.23;6.68;;;;;;;;;;5034377;28;20552;-77
2022/08/10 06:27:01;;;;;;;7.63;4.25;;;;;;;;;;5036271;28;20498;-77
2022/08/10 06:29:29;;;;;;;13.15;5.60;;;;;;;;;;5036831;28;20105;-78
2022/08/10 06:31:55;;;;;;;9.15;3.92;;;;;;;;;;5039369;28;20455;-77
2022/08/10 06:34:26;;;;;;;19.63;6.53;;;;;;;;;;5041425;28;20029;-78
2022/08/10 06:36:53;;;;;;;8.82;3.97;;;;;;;;;;5041888;28;20026;-78
2022/08/10 06:39:19;;;;;;;10.90;5.50;;;;;;;;;;5033823;28;20109;-78
2022/08/10 06:41:47;;;;;;;5.97;3.00;;;;;;;;;;5040978;28;20026;-78
2022/08/10 06:44:15;;;;;;;6.80;2.80;;;;;;;;;;5047006;28;20029;-78
2022/08/10 06:46:44;;;;;;;5.53;2.78;;;;;;;;;;5056359;28;20470;-76
2022/08/10 06:49:11;;;;;;;8.50;2.70;;;;;;;;;;5054856;28;20040;-76
2022/08/10 06:51:39;;;;;;;16.23;5.53;;;;;;;;;;5054350;28;20073;-77
2022/08/10 06:54:06;;;;;;;9.35;3.63;;;;;;;;;;5046734;28;20029;-76
2022/08/10 06:56:33;;;;;;;4.35;2.08;;;;;;;;;;5024855;28;20026;-76
2022/08/10 06:59:06;;;;;;;7.53;3.80;;;;;;;;;;5041621;28;20034;-76
2022/08/10 07:01:33;;;;;;;7.45;3.30;;;;;;;;;;5047355;28;20031;-77
2022/08/10 07:04:02;;;;;;;11.25;3.47;;;;;;;;;;5044012;28;20055;-77
2022/08/10 07:06:29;;;;;;;8.38;3.08;;;;;;;;;;5040945;28;20033;-77
2022/08/10 07:08:56;;;;;;;5.93;3.05;;;;;;;;;;5048956;28;20036;-77
2022/08/10 07:11:23;;;;;;;7.82;4.05;;;;;;;;;;5052383;28;20053;-77
2022/08/10 07:13:50;;;;;;;10.05;3.15;;;;;;;;;;5025963;28;20021;-77
2022/08/10 07:16:17;;;;;;;4.72;2.30;;;;;;;;;;5026088;28;20026;-76
2022/08/10 07:18:44;;;;;;;6.85;2.45;;;;;;;;;;5027602;28;20033;-76
2022/08/10 07:21:11;;;;;;;7.18;3.10;;;;;;;;;;5025380;28;20024;-77
2022/08/10 07:23:38;;;;;;;6.50;2.28;;;;;;;;;;5027121;28;20120;-76
2022/08/10 07:26:04;;;;;;;7.10;3.65;;;;;;;;;;5027411;28;20029;-76
2022/08/10 07:28:31;;;;;;;6.15;1.90;;;;;;;;;;5028410;28;20029;-76
2022/08/10 07:30:57;;;;;;;8.35;2.70;;;;;;;;;;5025455;28;20033;-75
2022/08/10 07:33:24;;;;;;;8.52;2.05;;;;;;;;;;5026555;28;20569;-76
2022/08/10 07:35:50;;;;;;;6.55;2.20;;;;;;;;;;5026271;28;20028;-75
2022/08/10 07:38:19;;;;;;;6.45;1.90;;;;;;;;;;5025749;28;20037;-78
2022/08/10 07:40:45;;;;;;;9.82;2.80;;;;;;;;;;5022370;28;20034;-76
2022/08/10 07:43:12;;;;;;;13.55;4.55;;;;;;;;;;5008094;28;20030;-77
2022/08/10 07:45:39;;;;;;;7.65;2.95;;;;;;;;;;5008435;28;20034;-76
2022/08/10 07:48:08;;;;;;;9.25;3.42;;;;;;;;;;5029196;28;20026;-76
2022/08/10 07:50:35;;;;;;;5.32;2.45;;;;;;;;;;5038577;28;20025;-75
2022/08/10 07:53:03;;;;;;;7.28;2.53;;;;;;;;;;5038076;28;20654;-75
2022/08/10 07:55:30;;;;;;;9.00;4.20;;;;;;;;;;5037697;28;20101;-76
2022/08/10 07:57:57;;;;;;;16.55;2.47;;;;;;;;;;5030179;28;20025;-76
2022/08/10 08:00:25;;;;;;;9.30;2.85;;;;;;;;;;5026179;28;20347;-77
2022/08/10 08:02:53;;;;;;;8.85;2.95;;;;;;;;;;5010311;28;20045;-77
2022/08/10 08:05:21;;;;;;;7.82;3.33;;;;;;;;;;5023418;28;20044;-75
2022/08/10 08:07:47;;;;;;;12.82;3.10;;;;;;;;;;5022427;28;20154;-76
2022/08/10 08:10:15;;;;;;;6.93;2.60;;;;;;;;;;5023742;28;20490;-76
2022/08/10 08:12:42;;;;;;;23.52;10.02;;;;;;;;;;5006237;28;20030;-77
2022/08/10 08:15:09;;;;;;;14.88;5.25;;;;;;;;;;5024873;28;20038;-77
2022/08/10 08:17:35;;;;;;;5.70;2.13;;;;;;;;;;5024912;28;20331;-76
2022/08/10 08:20:02;;;;;;;7.50;2.95;;;;;;;;;;5024178;28;20049;-76
2022/08/10 08:22:28;;;;;;;7.45;2.10;;;;;;;;;;4999142;28;20084;-77
2022/08/10 08:24:55;;;;;;;3.67;1.83;;;;;;;;;;5015075;28;20049;-78
2022/08/10 08:27:22;;;;;;;16.42;6.82;;;;;;;;;;4997130;28;20030;-76
2022/08/10 08:29:49;;;;;;;39.25;14.35;;;;;;;;;;5014537;28;20051;-77
2022/08/10 08:32:16;;;;;;;7.00;2.65;;;;;;;;;;4996684;28;20048;-78
2022/08/10 08:34:43;;;;;;;5.85;1.70;;;;;;;;;;4996203;28;20034;-76
2022/08/10 08:37:10;;;;;;;5.38;1.63;;;;;;;;;;5014922;28;20040;-76
2022/08/10 08:39:36;;;;;;;4.47;1.80;;;;;;;;;;4996534;28;20030;-77
2022/08/10 08:42:14;;;;;;;5.30;2.10;;;;;;;;;;5014434;28;20424;-77
2022/08/10 08:45:01;;;;;;;11.18;1.55;;;;;;;;;;5014633;28;20060;-76
2022/08/10 08:47:46;;;;;;;6.45;1.30;;;;;;;;;;5003527;28;20115;-77
2022/08/10 08:50:31;;;;;;;5.53;1.50;;;;;;;;;;5013870;28;20060;-77
2022/08/10 08:53:20;;;;;;;7.72;2.30;;;;;;;;;;5013376;28;20104;-77
2022/08/10 08:55:59;;;;;;;4.80;1.20;;;;;;;;;;5013629;28;20493;-77
2022/08/10 08:58:32;;;;;;;2.28;1.27;;;;;;;;;;5013810;28;20041;-77
2022/08/10 09:00:58;;;;;;;6.28;1.60;;;;;;;;;;5014378;28;20083;-76
2022/08/10 09:03:27;;;;;;;3.05;1.45;;;;;;;;;;5015170;28;20446;-77
2022/08/10 09:06:16;;;;;;;3.97;1.63;;;;;;;;;;5013677;28;20423;-78
2022/08/10 09:08:44;;;;;;;2.63;1.65;;;;;;;;;;5014073;28;20022;-77
2022/08/10 09:11:29;;;;;;;9.95;2.40;;;;;;;;;;5022165;28;20040;-76
2022/08/10 09:14:01;;;;;;;7.63;1.80;;;;;;;;;;5023069;28;20045;-77
2022/08/10 09:16:30;;;;;;;6.32;1.40;;;;;;;;;;5014061;28;20022;-75
2022/08/10 09:19:02;;;;;;;9.75;1.25;;;;;;;;;;5016300;28;20021;-76
2022/08/10 09:21:28;;;;;;;3.53;1.42;;;;;;;;;;5015207;28;20029;-77
2022/08/10 09:24:12;;;;;;;4.78;1.52;;;;;;;;;;5016009;28;20026;-76
2022/08/10 09:26:41;;;;;;;8.20;3.63;;;;;;;;;;5033799;28;20404;-77
2022/08/10 09:29:09;;;;;;;4.40;1.80;;;;;;;;;;5033144;28;20025;-76
2022/08/10 09:31:45;;;;;;;2.28;1.17;;;;;;;;;;5034018;28;20644;-76
2022/08/10 09:34:20;;;;;;;6.65;1.40;;;;;;;;;;5035624;28;20092;-76
2022/08/10 09:36:45;;;;;;;;;;;;;;;;;;5038329;28;20026;-76
2022/08/10 09:39:24;;;;;;;6.53;1.10;;;;;;;;;;5019048;28;20075;-77
2022/08/10 09:42:09;;;;;;;4.85;1.20;;;;;;;;;;5034064;28;20056;-76
2022/08/10 09:44:44;;;;;;;1.58;0.85;;;;;;;;;;5034071;28;20028;-76
2022/08/10 09:47:13;;;;;;;5.07;1.00;;;;;;;;;;5033302;28;20025;-77
2022/08/10 09:49:48;;;;;;;4.20;1.00;;;;;;;;;;5015688;28;20512;-77
2022/08/10 09:52:33;;;;;;;1.95;0.90;;;;;;;;;;5015570;28;20044;-77
2022/08/10 09:54:59;;;;;;;;;;;;;;;;;;5033418;28;20029;-77
2022/08/10 09:57:33;;;;;;;3.60;2.10;;;;;;;;;;5033319;28;19936;-78
2022/08/10 10:00:11;;;;;;;2.83;1.90;;;;;;;;;;5032897;28;20108;-77
2022/08/10 10:02:52;;;;;;;2.08;1.17;;;;;;;;;;5033009;28;20018;-77
2022/08/10 10:05:32;;;;;;;4.13;0.68;;;;;;;;;;5037414;28;20034;-78
2022/08/10 10:08:17;;;;;;;4.60;0.90;;;;;;;;;;5020175;28;20034;-77
2022/08/10 10:10:49;;;;;;;1.85;0.70;;;;;;;;;;5084557;22;20319;-75
2022/08/10 10:13:24;;;;;;;2.97;0.90;;;;;;;;;;5079021;28;20029;-74
2022/08/10 10:16:03;;;;;;;3.13;1.42;;;;;;;;;;5077352;28;20052;-75
2022/08/10 10:18:28;;;;;;;1.60;0.90;;;;;;;;;;5077659;28;20065;-75
2022/08/10 10:21:00;;;;;;;4.00;1.30;;;;;;;;;;5076426;28;20020;-74
2022/08/10 10:23:26;;;;;;;4.13;0.90;;;;;;;;;;5068444;28;20073;-74
2022/08/10 10:26:11;;;;;;;1.67;1.00;;;;;;;;;;5050892;28;20095;-74
2022/08/10 10:28:37;;;;;;;;;;;;;;;;;;5070463;28;20054;-74
2022/08/10 10:31:12;;;;;;;2.03;0.80;;;;;;;;;;5071956;28;19905;-75
2022/08/10 10:33:44;;;;;;;8.15;1.80;;;;;;;;;;5069697;28;20478;-74
2022/08/10 10:36:10;;;;;;;5.88;3.30;;;;;;;;;;5072253;28;20021;-74
2022/08/10 10:38:37;;;;;;;3.72;1.60;;;;;;;;;;5064643;28;20029;-75
2022/08/10 10:41:10;;;;;;;3.45;1.50;;;;;;;;;;5068981;28;20016;-75
2022/08/10 10:43:48;;;;;;;3.97;1.15;;;;;;;;;;5072816;28;20062;-76
2022/08/10 10:46:40;;;;;;;4.18;1.52;;;;;;;;;;5064931;28;20059;-75
2022/08/10 10:49:11;;;;;;;5.15;1.20;;;;;;;;;;5058061;28;20037;-73
2022/08/10 10:51:42;;;;;;;3.70;1.80;;;;;;;;;;5046518;28;20366;-74
2022/08/10 10:54:11;;;;;;;6.70;3.47;;;;;;;;;;5066145;28;20028;-76
2022/08/10 10:56:56;;;;;;;8.27;1.50;;;;;;;;;;5065017;28;20021;-74
2022/08/10 10:59:33;;;;;;;2.45;0.85;;;;;;;;;;5067929;28;20057;-73
2022/08/10 11:02:18;;;;;;;4.18;1.00;;;;;;;;;;5062712;28;20052;-75
2022/08/10 11:05:03;;;;;;;5.30;1.08;;;;;;;;;;5068457;28;20020;-73
2022/08/10 11:07:35;;;;;;;1.63;0.80;;;;;;;;;;5068562;28;20584;-75
2022/08/10 11:10:02;;;;;;;4.05;1.52;;;;;;;;;;5066041;28;20090;-74
2022/08/10 11:12:28;;;;;;;5.20;1.60;;;;;;;;;;5065400;28;20353;-75
2022/08/10 11:15:13;;;;;;;1.98;0.80;;;;;;;;;;5063322;28;20020;-74
2022/08/10 11:17:39;;;;;;;;;;;;;;;;;;5065474;28;20024;-74
2022/08/10 11:20:08;;;;;;;2.80;1.00;;;;;;;;;;5065103;28;19984;-75
2022/08/10 11:22:59;;;;;;;3.38;1.10;;;;;;;;;;5064172;28;20016;-76
2022/08/10 11:25:29;;;;;;;2.45;1.02;;;;;;;;;;5064518;28;20584;-74
2022/08/10 11:27:55;;;;;;;4.05;1.33;;;;;;;;;;5054893;28;20466;-76
2022/08/10 11:30:28;;;;;;;4.80;1.10;;;;;;;;;;5054583;28;20033;-74
2022/08/10 11:32:54;;;;;;;4.93;1.00;;;;;;;;;;5054530;28;20040;-74
2022/08/10 11:35:30;;;;;;;13.70;1.55;;;;;;;;;;5054843;28;20025;-75
2022/08/10 11:38:02;;;;;;;4.95;1.10;;;;;;;;;;5036327;28;20053;-76
2022/08/10 11:40:31;;;;;;;3.95;1.40;;;;;;;;;;5054601;28;20036;-75
2022/08/10 11:43:13;;;;;;;15.20;4.57;;;;;;;;;;5037195;28;20023;-73
2022/08/10 11:45:41;;;;;;;16.05;1.50;;;;;;;;;;5054740;28;20035;-75
2022/08/10 11:48:21;;;;;;;3.33;1.35;;;;;;;;;;5055616;28;20040;-73
2022/08/10 11:50:50;;;;;;;10.75;1.30;;;;;;;;;;5056284;28;20036;-74
2022/08/10 11:53:21;;;;;;;15.02;1.20;;;;;;;;;;5056395;28;20429;-73
2022/08/10 11:55:54;;;;;;;7.47;1.67;;;;;;;;;;5054101;28;20113;-75
2022/08/10 12:01:07;;;;;;;2.45;1.13;;;;;;;;;;5054767;28;20052;-73
2022/08/10 12:03:35;;;;;;;4.80;0.93;;;;;;;;;;5054808;28;20025;-77
2022/08/10 12:06:02;;;;;;;3.30;1.00;;;;;;;;;;5056294;28;20075;-77
2022/08/10 12:08:30;;;;;;;12.75;1.30;;;;;;;;;;5055043;28;20104;-74
2022/08/10 12:10:56;;;;;;;13.18;3.65;;;;;;;;;;5054365;28;20029;-75
2022/08/10 12:13:25;;;;;;;4.50;1.55;;;;;;;;;;5054371;28;20040;-74
2022/08/10 12:15:53;;;;;;;7.78;1.02;;;;;;;;;;5037189;28;20036;-74
2022/08/10 12:18:26;;;;;;;4.30;0.82;;;;;;;;;;5054245;28;20040;-74
2022/08/10 12:20:55;;;;;;;4.30;1.10;;;;;;;;;;5054642;28;20024;-76
2022/08/10 12:23:39;;;;;;;2.80;1.20;;;;;;;;;;5054789;28;20106;-75
2022/08/10 12:26:07;;;;;;;;;;;;;;;;;;5067035;28;20032;-74
2022/08/10 12:29:02;;;;;;;5.60;1.00;;;;;;;;;;5066466;28;19931;-75
2022/08/10 12:31:40;;;;;;;2.13;0.90;;;;;;;;;;5053044;28;20033;-74
2022/08/10 12:34:21;;;;;;;3.22;1.20;;;;;;;;;;5035837;28;20044;-75
2022/08/10 12:36:51;;;;;;;4.45;1.33;;;;;;;;;;5036340;28;20450;-75
2022/08/10 12:39:28;;;;;;;3.53;1.00;;;;;;;;;;5054149;28;20029;-75
2022/08/10 12:42:03;;;;;;;3.20;0.93;;;;;;;;;;5053810;28;20032;-75
2022/08/10 12:44:29;;;;;;;3.15;0.93;;;;;;;;;;5054278;28;20021;-75
2022/08/10 12:46:55;;;;;;;1.65;0.80;;;;;;;;;;5053079;28;20377;-72
2022/08/10 12:49:28;;;;;;;5.38;1.00;;;;;;;;;;5052945;28;20537;-75
2022/08/10 12:52:00;;;;;;;3.83;1.45;;;;;;;;;;5052811;28;20463;-76
2022/08/10 12:54:27;;;;;;;3.92;0.98;;;;;;;;;;5053012;28;20032;-75
2022/08/10 12:56:58;;;;;;;4.95;1.13;;;;;;;;;;5053087;28;20103;-75
2022/08/10 12:59:26;;;;;;;4.38;1.33;;;;;;;;;;5036299;28;20381;-77
2022/08/10 13:01:53;;;;;;;3.17;0.80;;;;;;;;;;5054911;28;20075;-75
2022/08/10 13:04:25;;;;;;;6.70;1.13;;;;;;;;;;5036502;28;20203;-75
2022/08/10 13:06:51;;;;;;;2.33;1.58;;;;;;;;;;5053225;28;20036;-75
2022/08/10 13:09:24;;;;;;;4.90;1.15;;;;;;;;;;5053663;28;20473;-75
2022/08/10 13:11:58;;;;;;;5.35;1.02;;;;;;;;;;5055020;28;20481;-79
2022/08/10 13:14:24;;;;;;;;;;;;;;;;;;5037253;28;20029;-76
2022/08/10 13:16:51;;;;;;;2.53;1.25;;;;;;;;;;5054476;28;19915;-75
2022/08/10 13:19:20;;;;;;;3.72;1.00;;;;;;;;;;5055286;28;20458;-75
2022/08/10 13:21:46;;;;;;;5.22;0.95;;;;;;;;;;5054392;28;20017;-75
2022/08/10 13:24:15;;;;;;;4.70;1.10;;;;;;;;;;5053897;28;20059;-74
2022/08/10 13:26:52;;;;;;;6.28;1.23;;;;;;;;;;5053517;28;20059;-75
2022/08/10 13:29:19;;;;;;;2.13;1.10;;;;;;;;;;5053569;28;20022;-74
2022/08/10 13:31:47;;;;;;;1.30;0.90;;;;;;;;;;5054093;28;20029;-75
2022/08/10 13:34:24;;;;;;;5.55;1.10;;;;;;;;;;5054431;28;20359;-76
2022/08/10 13:36:52;;;;;;;2.22;0.90;;;;;;;;;;5054733;28;20020;-74
2022/08/10 13:39:25;;;;;;;3.13;1.40;;;;;;;;;;5056881;28;20462;-75
2022/08/10 13:41:52;;;;;;;2.10;1.20;;;;;;;;;;5061023;28;20017;-76
2022/08/10 13:44:27;;;;;;;3.10;0.70;;;;;;;;;;5064650;28;20035;-77
2022/08/10 13:46:54;;;;;;;11.52;1.02;;;;;;;;;;5054910;28;20017;-75
2022/08/10 13:49:21;;;;;;;2.33;1.15;;;;;;;;;;5054189;28;20040;-75
2022/08/10 13:51:47;;;;;;;2.38;0.85;;;;;;;;;;5053984;28;20028;-75
2022/08/10 13:54:14;;;;;;;2.30;0.80;;;;;;;;;;5054848;28;20039;-75
2022/08/10 13:56:44;;;;;;;5.53;1.30;;;;;;;;;;5056003;28;20053;-76
2022/08/10 13:59:12;;;;;;;6.32;0.98;;;;;;;;;;5054943;28;20029;-76
2022/08/10 14:01:38;;;;;;;3.88;2.42;;;;;;;;;;5053641;28;20025;-77
2022/08/10 14:04:05;;;;;;;1.75;0.88;;;;;;;;;;5054819;28;20059;-77
2022/08/10 14:06:32;;;;;;;2.47;1.17;;;;;;;;;;5054443;28;20436;-77
2022/08/10 14:09:00;;;;;;;4.10;1.50;;;;;;;;;;5053926;28;20044;-78
2022/08/10 14:11:27;;;;;;;5.47;1.20;;;;;;;;;;5053238;28;20029;-76
2022/08/10 14:14:07;;;;;;;2.20;0.70;;;;;;;;;;5052581;28;20367;-74
2022/08/10 14:16:33;;;;;;;2.30;1.23;;;;;;;;;;5066723;28;20035;-74
2022/08/10 14:19:02;;;;;;;5.85;1.02;;;;;;;;;;5060841;28;20029;-77
2022/08/10 14:21:28;;;;;;;2.22;1.10;;;;;;;;;;5052959;28;20025;-76
2022/08/10 14:23:55;;;;;;;1.55;1.10;;;;;;;;;;5052902;28;20036;-76
2022/08/10 14:26:27;;;;;;;2.25;1.20;;;;;;;;;;5051737;28;20033;-74
2022/08/10 14:28:57;;;;;;;4.93;1.58;;;;;;;;;;5053170;28;20033;-75
2022/08/10 14:31:28;;;;;;;1.73;1.02;;;;;;;;;;5052677;28;20116;-77
2022/08/10 14:33:56;;;;;;;3.47;1.90;;;;;;;;;;5052275;28;20090;-74
2022/08/10 14:36:37;;;;;;;1.77;1.25;;;;;;;;;;5054822;28;20036;-74
2022/08/10 14:39:04;;;;;;;4.30;1.30;;;;;;;;;;5073127;28;20385;-73
2022/08/10 14:41:32;;;;;;;1.63;0.90;;;;;;;;;;5072011;28;20093;-76
2022/08/10 14:44:03;;;;;;;4.68;0.93;;;;;;;;;;5071791;28;20035;-76
2022/08/10 14:46:30;;;;;;;2.95;0.93;;;;;;;;;;5071305;28;20033;-74
2022/08/10 14:48:57;;;;;;;10.77;1.20;;;;;;;;;;5071953;28;20051;-76
2022/08/10 14:51:28;;;;;;;2.92;1.67;;;;;;;;;;5074458;28;20102;-75
2022/08/10 14:53:56;;;;;;;4.50;1.20;;;;;;;;;;5075783;28;20029;-76
2022/08/10 14:56:26;;;;;;;4.72;1.45;;;;;;;;;;5057647;28;20492;-74
2022/08/10 14:58:57;;;;;;;5.00;0.90;;;;;;;;;;5077056;28;20094;-74
2022/08/10 15:01:23;;;;;;;4.82;1.08;;;;;;;;;;5077697;28;20021;-76
2022/08/10 15:04:00;;;;;;;6.97;1.00;;;;;;;;;;5079474;28;20112;-76